sensor_id;sensor_type;location;lat;lon;timestamp;P1;durP1;ratioP1;P2;durP2;ratioP2
69775;SDS011;57049;51.450;-2.516;2023-04-07T00:00:20;1999.90;;;999.90;;
69775;SDS011;57049;51.450;-2.516;2023-04-07T00:02:45;1999.90;;;999.90;;
69775;SDS011;57049;51.450;-2.516;2023-04-07T00:05:11;1999.90;;;999.90;;
69775;SDS011;57049;51.450;-2.516;2023-04-07T00:07:36;1999.90;;;999.90;;
69775;SDS011;57049;51.450;-2.516;2023-04-07T00:10:02;1999.90;;;999.90;;
69775;SDS011;57049;51.450;-2.516;2023-04-07T00:12:28;1999.90;;;999.90;;
69775;SDS011;57049;51.450;-2.516;2023-04-07T00:14:53;1999.90;;;999.90;;
69775;SDS011;57049;51.450;-2.516;2023-04-07T00:17:18;1999.90;;;999.90;;
69775;SDS011;57049;51.450;-2.516;2023-04-07T00:19:44;1999.90;;;999.90;;
69775;SDS011;57049;51.450;-2.516;2023-04-07T00:22:09;1999.90;;;999.90;;
69775;SDS011;57049;51.450;-2.516;2023-04-07T00:24:35;1999.90;;;999.90;;
69775;SDS011;57049;51.450;-2.516;2023-04-07T00:27:00;1999.90;;;999.90;;
69775;SDS011;57049;51.450;-2.516;2023-04-07T00:29:26;1999.90;;;999.90;;
69775;SDS011;57049;51.450;-2.516;2023-04-07T00:31:51;1999.90;;;999.90;;
69775;SDS011;57049;51.450;-2.516;2023-04-07T00:34:17;1999.90;;;999.90;;
69775;SDS011;57049;51.450;-2.516;2023-04-07T00:36:42;1999.90;;;999.90;;
69775;SDS011;57049;51.450;-2.516;2023-04-07T00:39:08;1999.90;;;999.90;;
69775;SDS011;57049;51.450;-2.516;2023-04-07T00:41:33;1999.90;;;999.90;;
69775;SDS011;57049;51.450;-2.516;2023-04-07T00:44:00;1999.90;;;999.90;;
69775;SDS011;57049;51.450;-2.516;2023-04-07T00:46:25;1999.90;;;999.90;;
69775;SDS011;57049;51.450;-2.516;2023-04-07T00:48:51;1999.90;;;999.90;;
69775;SDS011;57049;51.450;-2.516;2023-04-07T00:51:17;1999.90;;;999.90;;
69775;SDS011;57049;51.450;-2.516;2023-04-07T00:53:46;1999.90;;;999.90;;
69775;SDS011;57049;51.450;-2.516;2023-04-07T00:56:12;1999.90;;;999.90;;
69775;SDS011;57049;51.450;-2.516;2023-04-07T00:58:37;1999.90;;;999.90;;
69775;SDS011;57049;51.450;-2.516;2023-04-07T01:01:07;1999.90;;;999.90;;
69775;SDS011;57049;51.450;-2.516;2023-04-07T01:03:43;1999.90;;;999.90;;
69775;SDS011;57049;51.450;-2.516;2023-04-07T01:06:13;1999.90;;;999.90;;
69775;SDS011;57049;51.450;-2.516;2023-04-07T01:11:27;1999.90;;;999.90;;
69775;SDS011;57049;51.450;-2.516;2023-04-07T01:13:58;1999.90;;;999.90;;
69775;SDS011;57049;51.450;-2.516;2023-04-07T01:16:33;1999.90;;;999.90;;
69775;SDS011;57049;51.450;-2.516;2023-04-07T01:19:08;1999.90;;;999.90;;
69775;SDS011;57049;51.450;-2.516;2023-04-07T01:21:41;1999.90;;;999.90;;
69775;SDS011;57049;51.450;-2.516;2023-04-07T01:26:48;1999.90;;;999.90;;
69775;SDS011;57049;51.450;-2.516;2023-04-07T01:32:01;1999.90;;;999.90;;
69775;SDS011;57049;51.450;-2.516;2023-04-07T01:34:28;1999.90;;;999.90;;
69775;SDS011;57049;51.450;-2.516;2023-04-07T01:36:55;1999.90;;;999.90;;
69775;SDS011;57049;51.450;-2.516;2023-04-07T01:39:22;1999.90;;;999.90;;
69775;SDS011;57049;51.450;-2.516;2023-04-07T01:41:50;1999.90;;;999.90;;
69775;SDS011;57049;51.450;-2.516;2023-04-07T01:44:19;1999.90;;;999.90;;
69775;SDS011;57049;51.450;-2.516;2023-04-07T01:46:45;1999.90;;;999.90;;
69775;SDS011;57049;51.450;-2.516;2023-04-07T01:49:12;1999.90;;;999.90;;
69775;SDS011;57049;51.450;-2.516;2023-04-07T01:51:39;1999.90;;;999.90;;
69775;SDS011;57049;51.450;-2.516;2023-04-07T01:54:05;1999.90;;;999.90;;
69775;SDS011;57049;51.450;-2.516;2023-04-07T01:56:32;1999.90;;;999.90;;
69775;SDS011;57049;51.450;-2.516;2023-04-07T01:58:58;1999.90;;;999.90;;
69775;SDS011;57049;51.450;-2.516;2023-04-07T02:01:23;1999.90;;;999.90;;
69775;SDS011;57049;51.450;-2.516;2023-04-07T02:06:18;1999.90;;;999.90;;
69775;SDS011;57049;51.450;-2.516;2023-04-07T02:08:49;1999.90;;;999.90;;
69775;SDS011;57049;51.450;-2.516;2023-04-07T02:11:19;1999.90;;;999.90;;
69775;SDS011;57049;51.450;-2.516;2023-04-07T02:13:46;1999.90;;;999.90;;
69775;SDS011;57049;51.450;-2.516;2023-04-07T02:16:13;1999.90;;;999.90;;
69775;SDS011;57049;51.450;-2.516;2023-04-07T02:18:40;1999.90;;;999.90;;
69775;SDS011;57049;51.450;-2.516;2023-04-07T02:21:07;1999.90;;;999.90;;
69775;SDS011;57049;51.450;-2.516;2023-04-07T02:23:35;1999.90;;;999.90;;
69775;SDS011;57049;51.450;-2.516;2023-04-07T02:26:01;1999.90;;;999.90;;
69775;SDS011;57049;51.450;-2.516;2023-04-07T02:28:26;1999.90;;;999.90;;
69775;SDS011;57049;51.450;-2.516;2023-04-07T02:30:52;1999.90;;;999.90;;
69775;SDS011;57049;51.450;-2.516;2023-04-07T02:33:17;1999.90;;;999.90;;
69775;SDS011;57049;51.450;-2.516;2023-04-07T02:35:42;1999.90;;;999.90;;
69775;SDS011;57049;51.450;-2.516;2023-04-07T02:38:08;1999.90;;;999.90;;
69775;SDS011;57049;51.450;-2.516;2023-04-07T02:40:33;1999.90;;;999.90;;
69775;SDS011;57049;51.450;-2.516;2023-04-07T02:43:00;1999.90;;;999.90;;
69775;SDS011;57049;51.450;-2.516;2023-04-07T02:45:26;1999.90;;;999.90;;
69775;SDS011;57049;51.450;-2.516;2023-04-07T02:47:51;1999.90;;;999.90;;
69775;SDS011;57049;51.450;-2.516;2023-04-07T02:50:17;1999.90;;;999.90;;
69775;SDS011;57049;51.450;-2.516;2023-04-07T02:52:42;1999.90;;;999.90;;
69775;SDS011;57049;51.450;-2.516;2023-04-07T02:55:08;1999.90;;;999.90;;
69775;SDS011;57049;51.450;-2.516;2023-04-07T02:57:33;1999.90;;;999.90;;
69775;SDS011;57049;51.450;-2.516;2023-04-07T02:59:59;1999.90;;;999.90;;
69775;SDS011;57049;51.450;-2.516;2023-04-07T03:02:24;1999.90;;;999.90;;
69775;SDS011;57049;51.450;-2.516;2023-04-07T03:04:50;1999.90;;;999.90;;
69775;SDS011;57049;51.450;-2.516;2023-04-07T03:07:17;1999.90;;;999.90;;
69775;SDS011;57049;51.450;-2.516;2023-04-07T03:09:42;1999.90;;;999.90;;
69775;SDS011;57049;51.450;-2.516;2023-04-07T03:12:08;1999.90;;;999.90;;
69775;SDS011;57049;51.450;-2.516;2023-04-07T03:14:33;1999.90;;;999.90;;
69775;SDS011;57049;51.450;-2.516;2023-04-07T03:16:59;1999.90;;;999.90;;
69775;SDS011;57049;51.450;-2.516;2023-04-07T03:19:24;1999.90;;;999.90;;
69775;SDS011;57049;51.450;-2.516;2023-04-07T03:21:49;1999.90;;;999.90;;
69775;SDS011;57049;51.450;-2.516;2023-04-07T03:24:15;1999.90;;;999.90;;
69775;SDS011;57049;51.450;-2.516;2023-04-07T03:26:40;1999.90;;;999.90;;
69775;SDS011;57049;51.450;-2.516;2023-04-07T03:29:06;1999.90;;;999.90;;
69775;SDS011;57049;51.450;-2.516;2023-04-07T03:31:31;1999.90;;;999.90;;
69775;SDS011;57049;51.450;-2.516;2023-04-07T03:33:57;1999.90;;;999.90;;
69775;SDS011;57049;51.450;-2.516;2023-04-07T03:36:22;1999.90;;;999.90;;
69775;SDS011;57049;51.450;-2.516;2023-04-07T03:38:48;1999.90;;;999.90;;
69775;SDS011;57049;51.450;-2.516;2023-04-07T03:41:13;1999.90;;;999.90;;
69775;SDS011;57049;51.450;-2.516;2023-04-07T03:43:39;1999.90;;;999.90;;
69775;SDS011;57049;51.450;-2.516;2023-04-07T03:46:05;1999.90;;;999.90;;
69775;SDS011;57049;51.450;-2.516;2023-04-07T03:48:31;1999.90;;;999.90;;
69775;SDS011;57049;51.450;-2.516;2023-04-07T03:50:57;1999.90;;;999.90;;
69775;SDS011;57049;51.450;-2.516;2023-04-07T03:53:22;1999.90;;;999.90;;
69775;SDS011;57049;51.450;-2.516;2023-04-07T03:55:48;1999.90;;;999.90;;
69775;SDS011;57049;51.450;-2.516;2023-04-07T03:58:13;1999.90;;;999.90;;
69775;SDS011;57049;51.450;-2.516;2023-04-07T04:00:38;1999.90;;;999.90;;
69775;SDS011;57049;51.450;-2.516;2023-04-07T04:03:04;1999.90;;;999.90;;
69775;SDS011;57049;51.450;-2.516;2023-04-07T04:05:30;1999.90;;;999.90;;
69775;SDS011;57049;51.450;-2.516;2023-04-07T04:07:55;1999.90;;;999.90;;
69775;SDS011;57049;51.450;-2.516;2023-04-07T04:10:21;1999.90;;;999.90;;
69775;SDS011;57049;51.450;-2.516;2023-04-07T04:12:47;1999.90;;;999.90;;
69775;SDS011;57049;51.450;-2.516;2023-04-07T04:15:13;1999.90;;;999.90;;
69775;SDS011;57049;51.450;-2.516;2023-04-07T04:17:39;1999.90;;;999.90;;
69775;SDS011;57049;51.450;-2.516;2023-04-07T04:20:05;1999.90;;;999.90;;
69775;SDS011;57049;51.450;-2.516;2023-04-07T04:22:31;1999.90;;;999.90;;
69775;SDS011;57049;51.450;-2.516;2023-04-07T04:24:58;1999.90;;;999.90;;
69775;SDS011;57049;51.450;-2.516;2023-04-07T04:27:23;1999.90;;;999.90;;
69775;SDS011;57049;51.450;-2.516;2023-04-07T04:29:49;1999.90;;;999.90;;
69775;SDS011;57049;51.450;-2.516;2023-04-07T04:32:14;1999.90;;;999.90;;
69775;SDS011;57049;51.450;-2.516;2023-04-07T04:34:41;1999.90;;;999.90;;
69775;SDS011;57049;51.450;-2.516;2023-04-07T04:37:07;1999.90;;;999.90;;
69775;SDS011;57049;51.450;-2.516;2023-04-07T04:39:32;1999.90;;;999.90;;
69775;SDS011;57049;51.450;-2.516;2023-04-07T04:41:58;1999.90;;;999.90;;
69775;SDS011;57049;51.450;-2.516;2023-04-07T04:44:27;1999.90;;;999.90;;
69775;SDS011;57049;51.450;-2.516;2023-04-07T04:46:54;1999.90;;;999.90;;
69775;SDS011;57049;51.450;-2.516;2023-04-07T04:49:19;1999.90;;;999.90;;
69775;SDS011;57049;51.450;-2.516;2023-04-07T04:51:45;1999.90;;;999.90;;
69775;SDS011;57049;51.450;-2.516;2023-04-07T04:54:10;1999.90;;;999.90;;
69775;SDS011;57049;51.450;-2.516;2023-04-07T04:56:35;1999.90;;;999.90;;
69775;SDS011;57049;51.450;-2.516;2023-04-07T04:59:01;1999.90;;;999.90;;
69775;SDS011;57049;51.450;-2.516;2023-04-07T05:01:28;1999.90;;;999.90;;
69775;SDS011;57049;51.450;-2.516;2023-04-07T05:03:53;1999.90;;;999.90;;
69775;SDS011;57049;51.450;-2.516;2023-04-07T05:06:19;1999.90;;;999.90;;
69775;SDS011;57049;51.450;-2.516;2023-04-07T05:08:45;1999.90;;;999.90;;
69775;SDS011;57049;51.450;-2.516;2023-04-07T05:11:11;1999.90;;;999.90;;
69775;SDS011;57049;51.450;-2.516;2023-04-07T05:13:36;1999.90;;;999.90;;
69775;SDS011;57049;51.450;-2.516;2023-04-07T05:16:02;1999.90;;;999.90;;
69775;SDS011;57049;51.450;-2.516;2023-04-07T05:18:27;1999.90;;;999.90;;
69775;SDS011;57049;51.450;-2.516;2023-04-07T05:20:53;1999.90;;;999.90;;
69775;SDS011;57049;51.450;-2.516;2023-04-07T05:23:18;1999.90;;;999.90;;
69775;SDS011;57049;51.450;-2.516;2023-04-07T05:25:43;1999.90;;;999.90;;
69775;SDS011;57049;51.450;-2.516;2023-04-07T05:28:09;1999.90;;;999.90;;
69775;SDS011;57049;51.450;-2.516;2023-04-07T05:30:34;1999.90;;;999.90;;
69775;SDS011;57049;51.450;-2.516;2023-04-07T05:33:00;1999.90;;;999.90;;
69775;SDS011;57049;51.450;-2.516;2023-04-07T05:35:26;1999.90;;;999.90;;
69775;SDS011;57049;51.450;-2.516;2023-04-07T05:37:51;1999.90;;;999.90;;
69775;SDS011;57049;51.450;-2.516;2023-04-07T05:40:16;1999.90;;;999.90;;
69775;SDS011;57049;51.450;-2.516;2023-04-07T05:42:42;1999.90;;;999.90;;
69775;SDS011;57049;51.450;-2.516;2023-04-07T05:45:08;1999.90;;;999.90;;
69775;SDS011;57049;51.450;-2.516;2023-04-07T05:47:34;1999.90;;;999.90;;
69775;SDS011;57049;51.450;-2.516;2023-04-07T05:49:59;1999.90;;;999.90;;
69775;SDS011;57049;51.450;-2.516;2023-04-07T05:52:25;1999.90;;;999.90;;
69775;SDS011;57049;51.450;-2.516;2023-04-07T05:54:51;1999.90;;;999.90;;
69775;SDS011;57049;51.450;-2.516;2023-04-07T05:57:16;1999.90;;;999.90;;
69775;SDS011;57049;51.450;-2.516;2023-04-07T05:59:41;1999.90;;;999.90;;
69775;SDS011;57049;51.450;-2.516;2023-04-07T06:02:07;1999.90;;;999.90;;
69775;SDS011;57049;51.450;-2.516;2023-04-07T06:04:32;1999.90;;;999.90;;
69775;SDS011;57049;51.450;-2.516;2023-04-07T06:06:59;1999.90;;;999.90;;
69775;SDS011;57049;51.450;-2.516;2023-04-07T06:09:25;1999.90;;;999.90;;
69775;SDS011;57049;51.450;-2.516;2023-04-07T06:11:51;1999.90;;;999.90;;
69775;SDS011;57049;51.450;-2.516;2023-04-07T06:14:16;1999.90;;;999.90;;
69775;SDS011;57049;51.450;-2.516;2023-04-07T06:16:42;1999.90;;;999.90;;
69775;SDS011;57049;51.450;-2.516;2023-04-07T06:19:07;1999.90;;;999.90;;
69775;SDS011;57049;51.450;-2.516;2023-04-07T06:21:33;1999.90;;;999.90;;
69775;SDS011;57049;51.450;-2.516;2023-04-07T06:23:59;1999.90;;;999.90;;
69775;SDS011;57049;51.450;-2.516;2023-04-07T06:26:24;1999.90;;;999.90;;
69775;SDS011;57049;51.450;-2.516;2023-04-07T06:28:51;1999.90;;;999.90;;
69775;SDS011;57049;51.450;-2.516;2023-04-07T06:31:16;1999.90;;;999.90;;
69775;SDS011;57049;51.450;-2.516;2023-04-07T06:33:42;1999.90;;;999.90;;
69775;SDS011;57049;51.450;-2.516;2023-04-07T06:36:08;1999.90;;;999.90;;
69775;SDS011;57049;51.450;-2.516;2023-04-07T06:38:34;1999.90;;;999.90;;
69775;SDS011;57049;51.450;-2.516;2023-04-07T06:40:59;1999.90;;;999.90;;
69775;SDS011;57049;51.450;-2.516;2023-04-07T06:43:25;1999.90;;;999.90;;
69775;SDS011;57049;51.450;-2.516;2023-04-07T06:45:50;1999.90;;;999.90;;
69775;SDS011;57049;51.450;-2.516;2023-04-07T06:48:16;1999.90;;;999.90;;
69775;SDS011;57049;51.450;-2.516;2023-04-07T06:50:44;1999.90;;;999.90;;
69775;SDS011;57049;51.450;-2.516;2023-04-07T06:53:10;1999.90;;;999.90;;
69775;SDS011;57049;51.450;-2.516;2023-04-07T06:55:36;1999.90;;;999.90;;
69775;SDS011;57049;51.450;-2.516;2023-04-07T06:58:01;1999.90;;;999.90;;
69775;SDS011;57049;51.450;-2.516;2023-04-07T07:00:26;1999.90;;;999.90;;
69775;SDS011;57049;51.450;-2.516;2023-04-07T07:02:54;1999.90;;;999.90;;
69775;SDS011;57049;51.450;-2.516;2023-04-07T07:05:19;1999.90;;;999.90;;
69775;SDS011;57049;51.450;-2.516;2023-04-07T07:07:45;1999.90;;;999.90;;
69775;SDS011;57049;51.450;-2.516;2023-04-07T07:10:11;1999.90;;;999.90;;
69775;SDS011;57049;51.450;-2.516;2023-04-07T07:12:36;1999.90;;;999.90;;
69775;SDS011;57049;51.450;-2.516;2023-04-07T07:15:02;1365.53;;;672.47;;
69775;SDS011;57049;51.450;-2.516;2023-04-07T07:17:27;1999.90;;;999.90;;
69775;SDS011;57049;51.450;-2.516;2023-04-07T07:19:53;337.53;;;145.83;;
69775;SDS011;57049;51.450;-2.516;2023-04-07T07:22:18;408.73;;;250.95;;
69775;SDS011;57049;51.450;-2.516;2023-04-07T07:24:44;513.63;;;299.20;;
69775;SDS011;57049;51.450;-2.516;2023-04-07T07:27:10;450.02;;;283.13;;
69775;SDS011;57049;51.450;-2.516;2023-04-07T07:29:35;390.57;;;282.53;;
69775;SDS011;57049;51.450;-2.516;2023-04-07T07:32:01;376.07;;;335.07;;
69775;SDS011;57049;51.450;-2.516;2023-04-07T07:34:26;505.00;;;296.07;;
69775;SDS011;57049;51.450;-2.516;2023-04-07T07:36:51;630.72;;;388.88;;
69775;SDS011;57049;51.450;-2.516;2023-04-07T07:39:17;300.23;;;271.50;;
69775;SDS011;57049;51.450;-2.516;2023-04-07T07:41:42;205.73;;;186.57;;
69775;SDS011;57049;51.450;-2.516;2023-04-07T07:44:08;372.37;;;335.80;;
69775;SDS011;57049;51.450;-2.516;2023-04-07T07:46:33;146.57;;;137.43;;
69775;SDS011;57049;51.450;-2.516;2023-04-07T07:48:59;381.03;;;251.07;;
69775;SDS011;57049;51.450;-2.516;2023-04-07T07:51:24;370.47;;;329.70;;
69775;SDS011;57049;51.450;-2.516;2023-04-07T07:53:51;459.17;;;332.85;;
69775;SDS011;57049;51.450;-2.516;2023-04-07T07:56:16;403.17;;;273.27;;
69775;SDS011;57049;51.450;-2.516;2023-04-07T07:58:42;473.13;;;290.33;;
69775;SDS011;57049;51.450;-2.516;2023-04-07T08:01:07;464.50;;;112.17;;
69775;SDS011;57049;51.450;-2.516;2023-04-07T08:03:33;273.70;;;95.20;;
69775;SDS011;57049;51.450;-2.516;2023-04-07T08:05:58;1999.90;;;999.90;;
69775;SDS011;57049;51.450;-2.516;2023-04-07T08:08:25;1999.90;;;999.90;;
69775;SDS011;57049;51.450;-2.516;2023-04-07T08:10:50;1999.90;;;999.90;;
69775;SDS011;57049;51.450;-2.516;2023-04-07T08:13:15;1999.90;;;999.90;;
69775;SDS011;57049;51.450;-2.516;2023-04-07T08:15:41;1999.90;;;999.90;;
69775;SDS011;57049;51.450;-2.516;2023-04-07T08:18:06;1999.90;;;999.90;;
69775;SDS011;57049;51.450;-2.516;2023-04-07T08:20:32;1999.90;;;999.90;;
69775;SDS011;57049;51.450;-2.516;2023-04-07T08:22:58;1999.90;;;999.90;;
69775;SDS011;57049;51.450;-2.516;2023-04-07T08:25:26;1999.90;;;999.90;;
69775;SDS011;57049;51.450;-2.516;2023-04-07T08:27:52;1999.90;;;999.90;;
69775;SDS011;57049;51.450;-2.516;2023-04-07T08:30:17;1999.90;;;999.90;;
69775;SDS011;57049;51.450;-2.516;2023-04-07T08:32:45;1999.90;;;999.90;;
69775;SDS011;57049;51.450;-2.516;2023-04-07T08:35:10;1999.90;;;999.90;;
69775;SDS011;57049;51.450;-2.516;2023-04-07T08:37:36;1999.90;;;999.90;;
69775;SDS011;57049;51.450;-2.516;2023-04-07T08:40:03;1999.90;;;999.90;;
69775;SDS011;57049;51.450;-2.516;2023-04-07T08:42:30;1022.17;;;503.45;;
69775;SDS011;57049;51.450;-2.516;2023-04-07T08:44:57;1999.90;;;999.90;;
69775;SDS011;57049;51.450;-2.516;2023-04-07T08:47:29;1048.57;;;507.35;;
69775;SDS011;57049;51.450;-2.516;2023-04-07T08:49:59;1999.90;;;999.90;;
69775;SDS011;57049;51.450;-2.516;2023-04-07T08:52:28;1999.90;;;999.90;;
69775;SDS011;57049;51.450;-2.516;2023-04-07T08:54:58;1999.90;;;999.90;;
69775;SDS011;57049;51.450;-2.516;2023-04-07T08:57:27;1999.90;;;999.90;;
69775;SDS011;57049;51.450;-2.516;2023-04-07T08:59:59;1999.90;;;999.90;;
69775;SDS011;57049;51.450;-2.516;2023-04-07T09:02:32;1999.90;;;999.90;;
69775;SDS011;57049;51.450;-2.516;2023-04-07T09:05:04;539.63;;;260.48;;
69775;SDS011;57049;51.450;-2.516;2023-04-07T09:07:31;1999.90;;;999.90;;
69775;SDS011;57049;51.450;-2.516;2023-04-07T09:09:57;1999.90;;;999.90;;
69775;SDS011;57049;51.450;-2.516;2023-04-07T09:12:23;1999.90;;;999.90;;
69775;SDS011;57049;51.450;-2.516;2023-04-07T09:14:49;1999.90;;;999.90;;
69775;SDS011;57049;51.450;-2.516;2023-04-07T09:17:14;1999.90;;;999.90;;
69775;SDS011;57049;51.450;-2.516;2023-04-07T09:19:40;1999.90;;;999.90;;
69775;SDS011;57049;51.450;-2.516;2023-04-07T09:22:06;1999.90;;;999.90;;
69775;SDS011;57049;51.450;-2.516;2023-04-07T09:24:32;1999.90;;;999.90;;
69775;SDS011;57049;51.450;-2.516;2023-04-07T09:27:11;1999.90;;;999.90;;
69775;SDS011;57049;51.450;-2.516;2023-04-07T09:29:39;1999.90;;;999.90;;
69775;SDS011;57049;51.450;-2.516;2023-04-07T09:32:06;1999.90;;;999.90;;
69775;SDS011;57049;51.450;-2.516;2023-04-07T09:34:33;1999.90;;;999.90;;
69775;SDS011;57049;51.450;-2.516;2023-04-07T09:37:04;1999.90;;;999.90;;
69775;SDS011;57049;51.450;-2.516;2023-04-07T09:39:47;1999.90;;;999.90;;
69775;SDS011;57049;51.450;-2.516;2023-04-07T09:42:14;1999.90;;;999.90;;
69775;SDS011;57049;51.450;-2.516;2023-04-07T09:44:41;1999.90;;;999.90;;
69775;SDS011;57049;51.450;-2.516;2023-04-07T09:47:06;1999.90;;;999.90;;
69775;SDS011;57049;51.450;-2.516;2023-04-07T09:49:32;1999.90;;;999.90;;
69775;SDS011;57049;51.450;-2.516;2023-04-07T09:52:12;1999.90;;;999.90;;
69775;SDS011;57049;51.450;-2.516;2023-04-07T09:54:38;1999.90;;;999.90;;
69775;SDS011;57049;51.450;-2.516;2023-04-07T09:57:09;1999.90;;;999.90;;
69775;SDS011;57049;51.450;-2.516;2023-04-07T09:59:36;1999.90;;;999.90;;
69775;SDS011;57049;51.450;-2.516;2023-04-07T10:02:04;1999.90;;;999.90;;
69775;SDS011;57049;51.450;-2.516;2023-04-07T10:04:30;1999.90;;;999.90;;
69775;SDS011;57049;51.450;-2.516;2023-04-07T10:06:57;1999.90;;;999.90;;
69775;SDS011;57049;51.450;-2.516;2023-04-07T10:09:27;1999.90;;;999.90;;
69775;SDS011;57049;51.450;-2.516;2023-04-07T10:11:53;1999.90;;;999.90;;
69775;SDS011;57049;51.450;-2.516;2023-04-07T10:14:21;1999.90;;;999.90;;
69775;SDS011;57049;51.450;-2.516;2023-04-07T10:16:51;1150.88;;;530.80;;
69775;SDS011;57049;51.450;-2.516;2023-04-07T10:19:17;1999.90;;;999.90;;
69775;SDS011;57049;51.450;-2.516;2023-04-07T10:21:43;1999.90;;;999.90;;
69775;SDS011;57049;51.450;-2.516;2023-04-07T10:24:29;1999.90;;;999.90;;
69775;SDS011;57049;51.450;-2.516;2023-04-07T10:27:02;1999.90;;;999.90;;
69775;SDS011;57049;51.450;-2.516;2023-04-07T10:29:33;1999.90;;;999.90;;
69775;SDS011;57049;51.450;-2.516;2023-04-07T10:32:05;1999.90;;;999.90;;
69775;SDS011;57049;51.450;-2.516;2023-04-07T10:37:27;1999.90;;;999.90;;
69775;SDS011;57049;51.450;-2.516;2023-04-07T10:42:43;1999.90;;;999.90;;
69775;SDS011;57049;51.450;-2.516;2023-04-07T10:45:10;1999.90;;;999.90;;
69775;SDS011;57049;51.450;-2.516;2023-04-07T10:50:27;1999.90;;;999.90;;
69775;SDS011;57049;51.450;-2.516;2023-04-07T10:53:06;1999.90;;;999.90;;
69775;SDS011;57049;51.450;-2.516;2023-04-07T10:55:42;1999.90;;;999.90;;
69775;SDS011;57049;51.450;-2.516;2023-04-07T10:58:22;1999.90;;;999.90;;
69775;SDS011;57049;51.450;-2.516;2023-04-07T11:03:23;1999.90;;;999.90;;
69775;SDS011;57049;51.450;-2.516;2023-04-07T11:05:49;1999.90;;;999.90;;
69775;SDS011;57049;51.450;-2.516;2023-04-07T11:08:30;1999.90;;;999.90;;
69775;SDS011;57049;51.450;-2.516;2023-04-07T11:11:02;1999.90;;;999.90;;
69775;SDS011;57049;51.450;-2.516;2023-04-07T11:13:39;1999.90;;;999.90;;
69775;SDS011;57049;51.450;-2.516;2023-04-07T11:16:17;1999.90;;;999.90;;
69775;SDS011;57049;51.450;-2.516;2023-04-07T11:18:44;1999.90;;;999.90;;
69775;SDS011;57049;51.450;-2.516;2023-04-07T11:21:16;1999.90;;;999.90;;
69775;SDS011;57049;51.450;-2.516;2023-04-07T11:23:43;1999.90;;;999.90;;
69775;SDS011;57049;51.450;-2.516;2023-04-07T11:26:10;1999.90;;;999.90;;
69775;SDS011;57049;51.450;-2.516;2023-04-07T11:31:32;1999.90;;;999.90;;
69775;SDS011;57049;51.450;-2.516;2023-04-07T11:33:59;1999.90;;;999.90;;
69775;SDS011;57049;51.450;-2.516;2023-04-07T11:36:30;1999.90;;;999.90;;
69775;SDS011;57049;51.450;-2.516;2023-04-07T11:39:00;1999.90;;;999.90;;
69775;SDS011;57049;51.450;-2.516;2023-04-07T11:41:27;1999.90;;;999.90;;
69775;SDS011;57049;51.450;-2.516;2023-04-07T11:44:08;1999.90;;;999.90;;
69775;SDS011;57049;51.450;-2.516;2023-04-07T11:46:36;1999.90;;;999.90;;
69775;SDS011;57049;51.450;-2.516;2023-04-07T11:49:16;1999.90;;;999.90;;
69775;SDS011;57049;51.450;-2.516;2023-04-07T11:51:42;1999.90;;;999.90;;
69775;SDS011;57049;51.450;-2.516;2023-04-07T11:54:08;1999.90;;;999.90;;
69775;SDS011;57049;51.450;-2.516;2023-04-07T11:56:41;1999.90;;;999.90;;
69775;SDS011;57049;51.450;-2.516;2023-04-07T11:59:08;1999.90;;;999.90;;
69775;SDS011;57049;51.450;-2.516;2023-04-07T12:01:44;1999.90;;;999.90;;
69775;SDS011;57049;51.450;-2.516;2023-04-07T12:04:11;1999.90;;;999.90;;
69775;SDS011;57049;51.450;-2.516;2023-04-07T12:06:41;1999.90;;;999.90;;
69775;SDS011;57049;51.450;-2.516;2023-04-07T12:09:08;1999.90;;;999.90;;
69775;SDS011;57049;51.450;-2.516;2023-04-07T12:11:50;1999.90;;;999.90;;
69775;SDS011;57049;51.450;-2.516;2023-04-07T12:14:16;1999.90;;;999.90;;
69775;SDS011;57049;51.450;-2.516;2023-04-07T12:16:41;1999.90;;;999.90;;
69775;SDS011;57049;51.450;-2.516;2023-04-07T12:19:07;1999.90;;;999.90;;
69775;SDS011;57049;51.450;-2.516;2023-04-07T12:21:32;653.00;;;275.10;;
69775;SDS011;57049;51.450;-2.516;2023-04-07T12:23:58;1999.90;;;999.90;;
69775;SDS011;57049;51.450;-2.516;2023-04-07T12:26:23;1999.90;;;999.90;;
69775;SDS011;57049;51.450;-2.516;2023-04-07T12:28:49;1999.90;;;999.90;;
69775;SDS011;57049;51.450;-2.516;2023-04-07T12:31:15;1999.90;;;999.90;;
69775;SDS011;57049;51.450;-2.516;2023-04-07T12:33:40;1999.90;;;999.90;;
69775;SDS011;57049;51.450;-2.516;2023-04-07T12:36:06;1999.90;;;999.90;;
69775;SDS011;57049;51.450;-2.516;2023-04-07T12:38:31;1999.90;;;999.90;;
69775;SDS011;57049;51.450;-2.516;2023-04-07T12:40:57;1999.90;;;999.90;;
69775;SDS011;57049;51.450;-2.516;2023-04-07T12:43:30;1527.47;;;753.63;;
69775;SDS011;57049;51.450;-2.516;2023-04-07T12:45:56;1999.90;;;999.90;;
69775;SDS011;57049;51.450;-2.516;2023-04-07T12:48:22;1999.90;;;999.90;;
69775;SDS011;57049;51.450;-2.516;2023-04-07T12:50:48;1999.90;;;999.90;;
69775;SDS011;57049;51.450;-2.516;2023-04-07T12:53:14;1999.90;;;999.90;;
69775;SDS011;57049;51.450;-2.516;2023-04-07T12:55:39;1999.90;;;999.90;;
69775;SDS011;57049;51.450;-2.516;2023-04-07T12:58:06;96.43;;;35.43;;
69775;SDS011;57049;51.450;-2.516;2023-04-07T13:00:35;1999.90;;;999.90;;
69775;SDS011;57049;51.450;-2.516;2023-04-07T13:03:01;1999.90;;;999.90;;
69775;SDS011;57049;51.450;-2.516;2023-04-07T13:05:27;1999.90;;;999.90;;
69775;SDS011;57049;51.450;-2.516;2023-04-07T13:07:53;665.97;;;276.60;;
69775;SDS011;57049;51.450;-2.516;2023-04-07T13:10:18;806.63;;;359.33;;
69775;SDS011;57049;51.450;-2.516;2023-04-07T13:12:45;1999.90;;;999.90;;
69775;SDS011;57049;51.450;-2.516;2023-04-07T13:15:10;206.83;;;49.77;;
69775;SDS011;57049;51.450;-2.516;2023-04-07T13:17:36;1999.90;;;999.90;;
69775;SDS011;57049;51.450;-2.516;2023-04-07T13:20:02;1999.90;;;999.90;;
69775;SDS011;57049;51.450;-2.516;2023-04-07T13:22:29;1541.72;;;759.67;;
69775;SDS011;57049;51.450;-2.516;2023-04-07T13:24:55;1999.90;;;999.90;;
69775;SDS011;57049;51.450;-2.516;2023-04-07T13:27:21;1999.90;;;999.90;;
69775;SDS011;57049;51.450;-2.516;2023-04-07T13:29:46;879.33;;;396.87;;
69775;SDS011;57049;51.450;-2.516;2023-04-07T13:32:12;194.95;;;54.53;;
69775;SDS011;57049;51.450;-2.516;2023-04-07T13:34:38;1159.60;;;554.85;;
69775;SDS011;57049;51.450;-2.516;2023-04-07T13:37:04;1999.90;;;999.90;;
69775;SDS011;57049;51.450;-2.516;2023-04-07T13:39:30;1999.90;;;999.90;;
69775;SDS011;57049;51.450;-2.516;2023-04-07T13:41:57;1562.32;;;767.72;;
69775;SDS011;57049;51.450;-2.516;2023-04-07T13:44:23;903.53;;;423.37;;
69775;SDS011;57049;51.450;-2.516;2023-04-07T13:46:50;721.05;;;352.35;;
69775;SDS011;57049;51.450;-2.516;2023-04-07T13:49:16;751.97;;;324.40;;
69775;SDS011;57049;51.450;-2.516;2023-04-07T13:51:42;281.90;;;58.95;;
69775;SDS011;57049;51.450;-2.516;2023-04-07T13:54:07;136.43;;;31.80;;
69775;SDS011;57049;51.450;-2.516;2023-04-07T13:56:33;313.73;;;97.90;;